Santa Nella, California
Current Conditions -  °F | °C
As of 10:53 AM on Thursday 18 Dec 2014 (Local Time) from KMCE Reporting Station
Clear Clear  
Wind Chill: 57°   Ceiling: Unl
Heat Index: 57°   Visibility: 10mi
Dew Point: 47°   Wind: 8mph
Humidity: 69%   Direction: 130°SE
Pressure: 30.2"   Gusts: NA
Location:  37.1919°N, 120.985°W
Report Text: KMCE 181853Z AUTO 13007KT 10SM CLR 14/08 A3020 RMK AO2 SLP226 T01390083
Loading
Personal Weather Stations






























Interactive Weather Map New forecast layout! Learn more

10-Day Weather Forecast

Advertisements
Track Severe Weather on mobile